Terminal Aerodrome Forecast
Issued by NWS

Home | Current Version | Previous Version | Text Only | Print | Product List | Glossary On
Versions: 1 2 3 4 5 6 7 8 9 10 11 12 13 14 15 16 17 18 19 20 21 22 23 24 25
000
FTUS45 KRIW 192300
TAFPNA
TAF
KPNA 192322Z 2000/2024 30015KT P6SM VCSH SCT050 BKN080
     FM200200 30008KT P6SM VCSH BKN060
     FM200500 29007KT P6SM BKN070
     FM201000 VRB03KT P6SM VCFG FEW010 BKN100
     FM201600 VRB06KT P6SM SCT100
     FM202000 34011KT P6SM VCSH BKN070 BKN100
      AMD LTD TO CLD VIS AND WIND=

USA.gov is the U.S. government's official web portal to all federal, state and local government web resources and services.